createdAt,value
2022-08-11T00:02:35.085Z,18.59
2022-08-11T00:05:08.443Z,18.68
2022-08-11T00:07:44.811Z,18.65
2022-08-11T00:10:15.675Z,18.66
2022-08-11T00:12:45.574Z,18.63
2022-08-11T00:15:14.582Z,18.63
2022-08-11T00:17:44.077Z,18.54
2022-08-11T00:20:17.145Z,18.59
2022-08-11T00:22:48.746Z,18.47
2022-08-11T00:25:19.646Z,18.60
2022-08-11T00:27:49.437Z,18.55
2022-08-11T00:30:18.474Z,18.47
2022-08-11T00:32:56.129Z,18.51
2022-08-11T00:35:52.011Z,18.43
2022-08-11T00:38:26.070Z,18.42
2022-08-11T00:41:02.182Z,18.27
2022-08-11T00:43:49.270Z,18.23
2022-08-11T00:46:30.303Z,18.19
2022-08-11T00:49:11.801Z,18.20
2022-08-11T00:52:12.731Z,18.18
2022-08-11T00:55:07.371Z,18.09
2022-08-11T00:58:27.632Z,18.02
2022-08-11T01:01:25.315Z,18.06
2022-08-11T01:04:12.435Z,17.99
2022-08-11T01:08:01.609Z,18.05
2022-08-11T01:10:24.414Z,17.91
2022-08-11T01:13:08.327Z,17.86
2022-08-11T01:16:10.804Z,17.77
2022-08-11T01:19:09.139Z,17.74
2022-08-11T01:22:17.274Z,17.77
2022-08-11T01:25:56.398Z,17.79
2022-08-11T01:29:04.087Z,17.68
2022-08-11T01:32:04.058Z,17.73
2022-08-11T01:35:09.015Z,17.68
2022-08-11T01:38:27.581Z,17.58
2022-08-11T01:41:50.224Z,17.58
2022-08-11T01:44:46.190Z,17.61
2022-08-11T01:47:52.542Z,17.49
2022-08-11T01:50:46.595Z,17.55
2022-08-11T01:53:28.268Z,17.54
2022-08-11T01:56:14.798Z,17.55
2022-08-11T01:58:49.281Z,17.46
2022-08-11T02:01:35.492Z,17.38
2022-08-11T02:04:18.753Z,17.35
2022-08-11T02:06:56.643Z,17.38
2022-08-11T02:09:49.496Z,17.41
2022-08-11T02:12:32.172Z,17.39
2022-08-11T02:15:09.186Z,17.33
2022-08-11T02:17:50.665Z,17.25
2022-08-11T02:20:45.889Z,17.22
2022-08-11T02:24:07.206Z,17.07
2022-08-11T02:26:41.567Z,17.13
2022-08-11T02:29:20.208Z,17.07
2022-08-11T02:32:28.687Z,17.04
2022-08-11T02:35:15.387Z,16.99
2022-08-11T02:37:53.146Z,16.89
2022-08-11T02:40:35.478Z,16.94
2022-08-11T02:43:12.860Z,16.81
2022-08-11T02:45:53.202Z,16.97
2022-08-11T02:49:08.884Z,16.85
2022-08-11T02:51:46.900Z,16.80
2022-08-11T02:54:25.164Z,16.99
2022-08-11T02:57:00.911Z,16.80
2022-08-11T02:59:52.571Z,16.68
2022-08-11T03:02:33.101Z,16.72
2022-08-11T03:05:14.545Z,16.71
2022-08-11T03:07:55.707Z,16.65
2022-08-11T03:10:30.844Z,16.58
2022-08-11T03:13:28.985Z,16.51
2022-08-11T03:16:31.250Z,16.51
2022-08-11T03:19:13.304Z,16.48
2022-08-11T03:22:01.277Z,16.52
2022-08-11T03:24:41.778Z,16.52
2022-08-11T03:27:22.003Z,16.45
2022-08-11T03:30:04.582Z,16.44
2022-08-11T03:32:39.086Z,16.53
2022-08-11T03:35:11.503Z,16.57
2022-08-11T03:37:56.574Z,16.46
2022-08-11T03:40:59.449Z,16.60
2022-08-11T03:43:58.495Z,16.52
2022-08-11T03:46:45.877Z,16.47
2022-08-11T03:49:30.908Z,16.41
2022-08-11T03:52:12.784Z,16.37
2022-08-11T03:54:55.709Z,16.39
2022-08-11T03:58:03.030Z,16.38
2022-08-11T04:00:56.028Z,16.31
2022-08-11T04:03:54.405Z,16.23
2022-08-11T04:06:49.512Z,16.22
2022-08-11T04:10:03.881Z,16.26
2022-08-11T04:13:01.043Z,16.34
2022-08-11T04:16:11.806Z,16.30
2022-08-11T04:19:28.585Z,16.30
2022-08-11T04:22:35.430Z,16.20
2022-08-11T04:25:32.403Z,16.22
2022-08-11T04:28:29.266Z,16.27
2022-08-11T04:31:11.582Z,16.23
2022-08-11T04:34:07.150Z,16.16
2022-08-11T04:37:36.377Z,16.24
2022-08-11T04:40:36.039Z,16.21
2022-08-11T04:43:57.180Z,16.13
2022-08-11T04:47:11.832Z,16.14
2022-08-11T04:50:20.431Z,16.27
2022-08-11T04:53:29.287Z,16.31
2022-08-11T04:56:28.241Z,16.26
2022-08-11T04:59:53.634Z,16.25
2022-08-11T05:02:56.597Z,16.25
2022-08-11T05:05:37.322Z,16.30
2022-08-11T05:08:51.688Z,16.36
2022-08-11T05:11:52.483Z,16.39
2022-08-11T05:14:50.933Z,16.43
2022-08-11T05:17:46.237Z,16.52
2022-08-11T05:20:32.630Z,16.51
2022-08-11T05:23:24.300Z,16.61
2022-08-11T05:26:46.632Z,16.73
2022-08-11T05:29:43.438Z,16.80
2022-08-11T05:32:32.292Z,16.90
2022-08-11T05:35:05.333Z,16.91
2022-08-11T05:37:43.000Z,17.00
2022-08-11T05:40:31.919Z,17.06
2022-08-11T05:43:20.163Z,17.12
2022-08-11T05:46:19.455Z,17.14
2022-08-11T05:49:07.177Z,17.24
2022-08-11T05:51:57.070Z,17.30
2022-08-11T05:54:46.059Z,17.47
2022-08-11T05:57:45.428Z,17.62
2022-08-11T06:00:11.849Z,17.80
2022-08-11T06:02:47.864Z,17.81
2022-08-11T06:05:19.402Z,17.86
2022-08-11T06:07:50.092Z,17.96
2022-08-11T06:10:33.366Z,18.02
2022-08-11T06:13:03.008Z,18.08
2022-08-11T06:15:34.204Z,18.12
2022-08-11T06:18:05.200Z,18.21
2022-08-11T06:20:37.650Z,18.32
2022-08-11T06:23:10.045Z,18.42
2022-08-11T06:25:39.406Z,18.46
2022-08-11T06:28:09.337Z,18.60
2022-08-11T06:30:42.633Z,18.66
2022-08-11T06:33:14.736Z,18.70
2022-08-11T06:35:53.150Z,18.81
2022-08-11T06:38:39.194Z,18.88
2022-08-11T06:41:34.470Z,18.98
2022-08-11T06:44:17.018Z,19.06
2022-08-11T06:46:50.900Z,19.19
2022-08-11T06:49:42.344Z,19.31
2022-08-11T06:52:35.713Z,19.47
2022-08-11T06:55:54.860Z,19.64
2022-08-11T06:58:15.895Z,19.78
2022-08-11T07:00:47.247Z,20.00
2022-08-11T07:03:20.392Z,20.06
2022-08-11T07:05:55.105Z,20.20
2022-08-11T07:09:21.385Z,20.44
2022-08-11T07:12:21.124Z,20.61
2022-08-11T07:15:10.964Z,20.74
2022-08-11T07:17:49.247Z,20.92
2022-08-11T07:20:36.689Z,20.96
2022-08-11T07:23:27.686Z,21.14
2022-08-11T07:26:18.412Z,21.24
2022-08-11T07:28:59.670Z,21.41
2022-08-11T07:31:35.976Z,21.54
2022-08-11T07:34:19.466Z,21.72
2022-08-11T07:36:52.456Z,21.91
2022-08-11T07:39:25.742Z,22.04
2022-08-11T07:41:58.195Z,22.19
2022-08-11T07:44:34.740Z,22.30
2022-08-11T07:47:22.398Z,22.32
2022-08-11T07:50:11.513Z,22.42
2022-08-11T07:52:41.067Z,22.49
2022-08-11T07:55:16.966Z,22.80
2022-08-11T07:58:15.849Z,22.83
2022-08-11T08:01:10.427Z,22.87
2022-08-11T08:04:03.746Z,23.09
2022-08-11T08:06:51.911Z,23.32
2022-08-11T08:09:40.621Z,23.39
2022-08-11T08:12:28.781Z,23.51
2022-08-11T08:15:16.348Z,23.69
2022-08-11T08:18:20.641Z,23.79
2022-08-11T08:20:50.295Z,23.94
2022-08-11T08:23:33.734Z,24.04
2022-08-11T08:26:05.680Z,24.23
2022-08-11T08:28:46.638Z,24.28
2022-08-11T08:31:15.799Z,24.33
2022-08-11T08:33:44.924Z,24.59
2022-08-11T08:36:15.308Z,24.70
2022-08-11T08:38:51.796Z,24.77
2022-08-11T08:41:24.920Z,24.94
2022-08-11T08:44:20.680Z,24.96
2022-08-11T08:46:51.734Z,25.00
2022-08-11T08:49:27.967Z,25.19
2022-08-11T08:52:19.327Z,25.29
2022-08-11T08:54:54.166Z,25.36
2022-08-11T08:57:24.140Z,25.50
2022-08-11T08:59:55.177Z,25.59
2022-08-11T09:02:34.315Z,25.86
2022-08-11T09:05:05.743Z,26.00
2022-08-11T09:07:39.454Z,26.12
2022-08-11T09:10:11.265Z,26.06
2022-08-11T09:12:43.419Z,26.15
2022-08-11T09:15:19.894Z,26.49
2022-08-11T09:17:51.644Z,26.70
2022-08-11T09:20:23.873Z,26.60
2022-08-11T09:26:22.052Z,26.77
2022-08-11T09:29:00.201Z,26.97
2022-08-11T09:31:37.272Z,26.89
2022-08-11T09:34:11.615Z,27.05
2022-08-11T09:36:58.574Z,27.03
2022-08-11T09:39:52.112Z,27.00
2022-08-11T09:42:24.018Z,27.23
2022-08-11T09:44:53.312Z,28.15
2022-08-11T09:47:26.004Z,29.99
2022-08-11T09:50:00.020Z,30.76
2022-08-11T09:52:33.434Z,31.72
2022-08-11T09:55:11.317Z,32.39
2022-08-11T09:57:59.459Z,33.42
2022-08-11T10:00:32.656Z,33.69
2022-08-11T10:03:06.208Z,32.80
2022-08-11T10:05:53.143Z,33.25
2022-08-11T10:08:27.974Z,31.16
2022-08-11T10:10:57.751Z,29.98
2022-08-11T10:14:31.429Z,29.87
2022-08-11T10:16:25.558Z,29.51
2022-08-11T10:18:57.054Z,29.74
2022-08-11T10:21:30.300Z,29.61
2022-08-11T10:24:18.638Z,30.01
2022-08-11T10:26:55.566Z,29.98
2022-08-11T10:29:44.482Z,29.91
2022-08-11T10:32:46.317Z,30.36
2022-08-11T10:35:30.711Z,29.88
2022-08-11T10:38:07.754Z,30.20
2022-08-11T10:40:40.778Z,30.66
2022-08-11T10:43:14.214Z,30.55
2022-08-11T10:46:29.581Z,31.38
2022-08-11T10:49:00.075Z,31.21
2022-08-11T10:51:52.182Z,32.20
2022-08-11T10:54:41.848Z,32.61
2022-08-11T10:57:29.409Z,32.63
2022-08-11T10:59:59.320Z,32.78
2022-08-11T11:02:29.313Z,32.96
2022-08-11T11:05:09.446Z,33.04
2022-08-11T11:07:44.739Z,33.45
2022-08-11T11:10:13.610Z,33.59
2022-08-11T11:13:04.495Z,33.73
2022-08-11T11:15:53.766Z,31.72
2022-08-11T11:18:25.115Z,33.10
2022-08-11T11:20:58.491Z,33.22
2022-08-11T11:23:35.222Z,34.20
2022-08-11T11:26:27.474Z,35.04
2022-08-11T11:29:40.698Z,35.03
2022-08-11T11:32:32.103Z,35.10
2022-08-11T11:35:26.716Z,35.63
2022-08-11T11:38:04.330Z,35.28
2022-08-11T11:40:37.401Z,35.14
2022-08-11T11:43:07.013Z,34.70
2022-08-11T11:45:38.019Z,35.32
2022-08-11T11:48:07.580Z,34.09
2022-08-11T11:50:39.054Z,34.56
2022-08-11T11:53:11.123Z,35.29
2022-08-11T11:55:43.003Z,35.67
2022-08-11T11:58:29.226Z,36.60
2022-08-11T12:01:20.103Z,36.37
2022-08-11T12:03:51.698Z,35.36
2022-08-11T12:06:23.106Z,35.50
2022-08-11T12:08:54.738Z,37.84
2022-08-11T12:11:45.485Z,37.36
2022-08-11T12:14:18.391Z,35.97
2022-08-11T12:16:48.855Z,35.68
2022-08-11T12:19:21.432Z,36.11
2022-08-11T12:22:07.784Z,35.79
2022-08-11T12:24:55.550Z,36.85
2022-08-11T12:27:27.888Z,35.98
2022-08-11T12:30:00.633Z,36.70
2022-08-11T12:32:32.288Z,36.48
2022-08-11T12:35:01.658Z,35.94
2022-08-11T12:37:33.880Z,36.19
2022-08-11T12:40:43.552Z,35.89
2022-08-11T12:43:37.901Z,36.25
2022-08-11T12:46:10.482Z,36.55
2022-08-11T12:49:03.099Z,37.56
2022-08-11T12:52:12.925Z,36.62
2022-08-11T12:54:51.772Z,35.13
2022-08-11T12:57:49.818Z,35.97
2022-08-11T13:00:38.793Z,37.11
2022-08-11T13:03:27.291Z,36.40
2022-08-11T13:05:58.464Z,36.75
2022-08-11T13:08:29.565Z,35.65
2022-08-11T13:11:18.489Z,36.43
2022-08-11T13:13:53.917Z,35.25
2022-08-11T13:16:30.441Z,35.30
2022-08-11T13:19:01.592Z,35.70
2022-08-11T13:21:31.581Z,35.56
2022-08-11T13:24:03.527Z,36.10
2022-08-11T13:26:46.926Z,37.74
2022-08-11T13:29:22.188Z,36.52
2022-08-11T13:31:53.779Z,35.80
2022-08-11T13:34:24.292Z,36.56
2022-08-11T13:36:55.467Z,36.64
2022-08-11T13:39:26.889Z,36.94
2022-08-11T13:41:57.760Z,37.02
2022-08-11T13:44:29.788Z,36.30
2022-08-11T13:47:04.225Z,36.51
2022-08-11T13:49:39.525Z,37.11
2022-08-11T13:52:13.926Z,36.57
2022-08-11T13:54:43.739Z,36.03
2022-08-11T13:58:08.649Z,37.06
2022-08-11T14:00:13.147Z,38.21
2022-08-11T14:02:56.764Z,38.95
2022-08-11T14:05:29.351Z,37.31
2022-08-11T14:08:02.916Z,37.25
2022-08-11T14:10:34.249Z,36.95
2022-08-11T14:13:25.703Z,37.01
2022-08-11T14:15:57.371Z,36.43
2022-08-11T14:18:29.937Z,36.30
2022-08-11T14:21:26.783Z,37.33
2022-08-11T14:23:59.331Z,36.95
2022-08-11T14:26:36.650Z,37.61
2022-08-11T14:29:08.464Z,37.12
2022-08-11T14:31:40.335Z,36.86
2022-08-11T14:34:12.606Z,36.68
2022-08-11T14:36:43.276Z,36.95
2022-08-11T14:39:17.238Z,37.52
2022-08-11T14:42:11.593Z,38.45
2022-08-11T14:45:04.296Z,38.01
2022-08-11T14:47:36.070Z,36.90
2022-08-11T14:50:11.701Z,36.59
2022-08-11T14:52:51.372Z,36.39
2022-08-11T14:55:39.122Z,36.34
2022-08-11T14:58:10.817Z,37.11
2022-08-11T15:00:40.574Z,36.57
2022-08-11T15:03:11.733Z,37.00
2022-08-11T15:05:56.545Z,36.29
2022-08-11T15:08:47.923Z,36.24
2022-08-11T15:11:36.667Z,35.99
2022-08-11T15:14:07.897Z,37.04
2022-08-11T15:16:56.126Z,35.84
2022-08-11T15:19:40.106Z,35.81
2022-08-11T15:22:29.435Z,36.06
2022-08-11T15:25:00.007Z,36.04
2022-08-11T15:27:48.860Z,35.94
2022-08-11T15:30:35.506Z,36.88
2022-08-11T15:33:26.740Z,36.56
2022-08-11T15:36:15.305Z,36.50
2022-08-11T15:38:59.479Z,36.38
2022-08-11T15:41:56.444Z,35.66
2022-08-11T15:45:08.578Z,36.66
2022-08-11T15:47:42.283Z,35.56
2022-08-11T15:50:15.984Z,36.68
2022-08-11T15:52:50.847Z,37.37
2022-08-11T15:55:23.493Z,37.41
2022-08-11T15:58:12.693Z,38.03
2022-08-11T16:01:04.425Z,37.15
2022-08-11T16:04:08.207Z,36.71
2022-08-11T16:06:47.568Z,36.92
2022-08-11T16:09:24.829Z,35.81
2022-08-11T16:12:00.681Z,35.60
2022-08-11T16:14:49.758Z,35.62
2022-08-11T16:17:20.645Z,35.06
2022-08-11T16:19:52.808Z,36.00
2022-08-11T16:22:34.528Z,36.24
2022-08-11T16:27:01.641Z,35.64
2022-08-11T16:27:59.672Z,35.63
2022-08-11T16:30:31.876Z,35.94
2022-08-11T16:33:47.973Z,35.57
2022-08-11T16:36:13.378Z,35.39
2022-08-11T16:38:44.089Z,35.41
2022-08-11T16:41:15.522Z,35.81
2022-08-11T16:44:13.751Z,35.91
2022-08-11T16:47:00.600Z,36.30
2022-08-11T16:49:34.894Z,36.31
2022-08-11T16:52:05.598Z,36.16
2022-08-11T16:54:35.351Z,35.28
2022-08-11T16:57:20.657Z,35.42
2022-08-11T16:59:57.439Z,35.92
2022-08-11T17:02:51.680Z,35.80
2022-08-11T17:05:54.636Z,35.17
2022-08-11T17:08:57.082Z,35.58
2022-08-11T17:11:46.582Z,35.06
2022-08-11T17:14:35.537Z,35.09
2022-08-11T17:17:12.440Z,34.82
2022-08-11T17:20:39.742Z,34.73
2022-08-11T17:22:53.912Z,34.88
2022-08-11T17:25:25.401Z,34.87
2022-08-11T17:27:56.671Z,35.28
2022-08-11T17:30:48.093Z,35.18
2022-08-11T17:33:37.175Z,34.00
2022-08-11T17:36:07.164Z,34.83
2022-08-11T17:38:37.879Z,33.52
2022-08-11T17:41:25.831Z,33.85
2022-08-11T17:44:14.746Z,33.57
2022-08-11T17:47:05.904Z,33.16
2022-08-11T17:49:38.027Z,33.34
2022-08-11T17:52:26.330Z,32.87
2022-08-11T17:55:14.016Z,32.81
2022-08-11T17:58:01.419Z,33.29
2022-08-11T18:00:31.887Z,33.06
2022-08-11T18:03:20.193Z,32.46
2022-08-11T18:05:50.919Z,31.46
2022-08-11T18:08:39.718Z,31.21
2022-08-11T18:12:10.096Z,31.38
2022-08-11T18:14:34.768Z,31.18
2022-08-11T18:17:21.182Z,30.77
2022-08-11T18:20:07.647Z,30.32
2022-08-11T18:22:59.474Z,29.83
2022-08-11T18:25:49.488Z,29.36
2022-08-11T18:28:40.724Z,29.13
2022-08-11T18:31:29.088Z,28.71
2022-08-11T18:34:19.088Z,28.54
2022-08-11T18:37:10.024Z,28.38
2022-08-11T18:40:19.357Z,27.97
2022-08-11T18:43:08.065Z,27.88
2022-08-11T18:46:06.226Z,27.82
2022-08-11T18:48:56.936Z,27.48
2022-08-11T18:51:44.785Z,27.39
2022-08-11T18:54:32.864Z,27.28
2022-08-11T18:57:25.599Z,27.13
2022-08-11T19:00:13.406Z,26.89
2022-08-11T19:03:01.077Z,26.83
2022-08-11T19:06:36.936Z,26.83
2022-08-11T19:09:01.698Z,26.56
2022-08-11T19:11:49.764Z,26.43
2022-08-11T19:14:39.920Z,26.47
2022-08-11T19:17:43.878Z,26.30
2022-08-11T19:20:34.646Z,26.23
2022-08-11T19:23:21.995Z,26.25
2022-08-11T19:26:08.659Z,25.89
2022-08-11T19:28:57.743Z,25.84
2022-08-11T19:31:45.819Z,25.88
2022-08-11T19:34:35.002Z,25.82
2022-08-11T19:37:25.074Z,25.67
2022-08-11T19:40:12.858Z,25.51
2022-08-11T19:43:01.686Z,25.27
2022-08-11T19:45:52.654Z,25.33
2022-08-11T19:48:42.443Z,25.16
2022-08-11T19:51:30.609Z,25.12
2022-08-11T19:54:17.946Z,24.91
2022-08-11T19:57:06.253Z,24.96
2022-08-11T19:59:53.404Z,24.89
2022-08-11T20:02:39.680Z,24.92
2022-08-11T20:05:28.098Z,24.84
2022-08-11T20:08:16.776Z,24.67
2022-08-11T20:11:07.125Z,24.56
2022-08-11T20:13:55.917Z,24.46
2022-08-11T20:16:44.267Z,24.44
2022-08-11T20:19:56.443Z,24.23
2022-08-11T20:22:38.649Z,24.13
2022-08-11T20:25:26.619Z,24.06
2022-08-11T20:28:14.678Z,23.93
2022-08-11T20:31:04.059Z,24.00
2022-08-11T20:33:51.454Z,23.83
2022-08-11T20:36:37.785Z,23.99
2022-08-11T20:39:26.397Z,24.25
2022-08-11T20:42:13.670Z,24.21
2022-08-11T20:45:01.147Z,24.09
2022-08-11T20:47:56.461Z,24.22
2022-08-11T20:50:47.773Z,23.90
2022-08-11T20:53:39.212Z,23.83
2022-08-11T20:56:30.217Z,23.86
2022-08-11T20:59:18.887Z,23.74
2022-08-11T21:02:10.595Z,23.80
2022-08-11T21:05:00.273Z,23.50
2022-08-11T21:07:55.540Z,23.54
2022-08-11T21:10:50.614Z,23.44
2022-08-11T21:13:43.592Z,23.25
2022-08-11T21:16:35.923Z,23.45
2022-08-11T21:20:00.452Z,23.26
2022-08-11T21:22:58.940Z,23.12
2022-08-11T21:25:49.205Z,22.97
2022-08-11T21:28:38.736Z,22.96
2022-08-11T21:31:27.758Z,23.08
2022-08-11T21:34:14.719Z,22.90
2022-08-11T21:37:04.382Z,22.87
2022-08-11T21:39:53.363Z,22.76
2022-08-11T21:42:40.856Z,22.67
2022-08-11T21:45:29.331Z,22.65
2022-08-11T21:48:19.979Z,22.58
2022-08-11T21:51:06.598Z,22.50
2022-08-11T21:53:54.014Z,22.45
2022-08-11T21:56:42.049Z,22.35
2022-08-11T21:59:30.266Z,22.27
2022-08-11T22:02:17.993Z,22.30
2022-08-11T22:05:06.034Z,22.08
2022-08-11T22:07:52.129Z,22.27
2022-08-11T22:10:42.011Z,22.12
2022-08-11T22:13:30.434Z,22.03
2022-08-11T22:16:17.235Z,22.05
2022-08-11T22:19:04.661Z,21.97
2022-08-11T22:22:02.343Z,22.07
2022-08-11T22:24:52.021Z,22.09
2022-08-11T22:27:39.788Z,22.06
2022-08-11T22:30:28.374Z,22.01
2022-08-11T22:33:16.516Z,21.87
2022-08-11T22:36:04.106Z,21.90
2022-08-11T22:38:53.234Z,21.75
2022-08-11T22:41:40.555Z,21.68
2022-08-11T22:44:27.153Z,21.79
2022-08-11T22:47:18.431Z,21.63
2022-08-11T22:50:09.859Z,21.61
2022-08-11T22:52:57.128Z,21.54
2022-08-11T22:55:45.566Z,21.47
2022-08-11T22:58:33.944Z,21.41
2022-08-11T23:01:20.564Z,21.34
2022-08-11T23:04:06.986Z,21.20
2022-08-11T23:06:54.632Z,21.11
2022-08-11T23:09:42.526Z,20.94
2022-08-11T23:12:31.246Z,21.02
2022-08-11T23:15:18.154Z,21.03
2022-08-11T23:18:05.326Z,20.93
2022-08-11T23:20:55.782Z,20.75
2022-08-11T23:23:44.963Z,20.79
2022-08-11T23:26:32.067Z,20.71
2022-08-11T23:29:20.850Z,20.58
2022-08-11T23:32:10.378Z,20.60
2022-08-11T23:35:37.088Z,20.55
2022-08-11T23:38:06.819Z,20.49
2022-08-11T23:40:53.049Z,20.52
2022-08-11T23:43:41.043Z,20.57
2022-08-11T23:46:28.979Z,20.47
2022-08-11T23:49:20.427Z,20.65
2022-08-11T23:52:08.234Z,20.45
2022-08-11T23:54:55.523Z,20.56
2022-08-11T23:57:47.669Z,20.48
